This is the latest recevied weather packets stored in our database for station/object F5MAP-5. If no packets are shown the sender has not sent any weather packets the latest 10 day(s).
| Time | Temp. | Humidity | Pressure | Rain* | Wind** | Luminosity | Snow |
|---|---|---|---|---|---|---|---|
| 1778185935 | 11.67° C | 83% | 1016.3 hPa | 0 mm | - | 0 W/m² | - |
| 1778185335 | 11.67° C | 84% | 1016.2 hPa | 0 mm | - | 0 W/m² | - |
| 1778184735 | 11.67° C | 83% | 1016.1 hPa | 0 mm | - | 0 W/m² | - |
| 1778184135 | 12.22° C | 83% | 1016 hPa | 0 mm | - | 0 W/m² | - |
| 1778183535 | 12.22° C | 83% | 1015.9 hPa | 0 mm | - | 0 W/m² | - |
| 1778182935 | 12.22° C | 83% | 1015.7 hPa | 0 mm | - | 0 W/m² | - |
| 1778182335 | 12.78° C | 82% | 1015.7 hPa | 0 mm | - | 0 W/m² | - |
| 1778181735 | 12.78° C | 82% | 1015.6 hPa | 0 mm | - | 0 W/m² | - |
| 1778181135 | 13.33° C | 81% | 1015.5 hPa | 0 mm | - | 0 W/m² | - |
| 1778180534 | 13.33° C | 81% | 1015.5 hPa | 0 mm | - | 0 W/m² | - |
| 1778179935 | 13.33° C | 80% | 1015.5 hPa | 0 mm | - | 0 W/m² | - |
| 1778179334 | 13.89° C | 80% | 1015.4 hPa | 0 mm | - | 5 W/m² | - |
| 1778178734 | 13.89° C | 79% | 1015.3 hPa | 0 mm | - | 7 W/m² | - |
| 1778178134 | 14.44° C | 78% | 1015.3 hPa | 0 mm | - | 11 W/m² | - |
| 1778177534 | 14.44° C | 77% | 1015.2 hPa | 0 mm | - | 12 W/m² | - |
| 1778176934 | 14.44° C | 76% | 1015.1 hPa | 0 mm | - | 16 W/m² | - |
| 1778176334 | 14.44° C | 76% | 1015.1 hPa | 0 mm | - | 18 W/m² | - |
| 1778175734 | 15° C | 74% | 1015 hPa | 0 mm | - | 16 W/m² | - |
| 1778175134 | 15° C | 73% | 1015.1 hPa | 0 mm | - | 25 W/m² | - |
| 1778174534 | 15° C | 72% | 1015.2 hPa | 0 mm | - | 60 W/m² | - |
| 1778173935 | 15° C | 72% | 1015.1 hPa | 0 mm | - | 37 W/m² | - |
| 1778173334 | 15° C | 72% | 1014.9 hPa | 0 mm | - | 28 W/m² | - |
| 1778172734 | 15.56° C | 72% | 1014.8 hPa | 0 mm | - | 30 W/m² | - |
| 1778172134 | 15.56° C | 72% | 1014.9 hPa | 0 mm | - | 32 W/m² | - |
| 1778171533 | 15.56° C | 73% | 1015 hPa | 0 mm | - | 40 W/m² | - |
* Rain latest hour (hover to see other rain measurements)
** Current wind speed in m/s (hover to see current wind gust speed)